METAR Data

Data at: 2335 UTC 26 Feb 2020

METAR for:KGNR (Greenville Muni, ME, US)
Text:KGNR 262256Z AUTO 10005KT 03/M05 A2999 RMK AO1 SLP172 T00281050
Temperature: 2.8°C ( 37°F)
Dewpoint: -5.0°C ( 23°F) [RH = 56%]
Pressure (altimeter):29.99 inches Hg (1015.7 mb) [Sea level pressure: 1017.2 mb]
Winds:from the E (100 degrees) at 6 MPH (5 knots; 2.6 m/s)
QC Flag:automated observation with no human augmentation